sim
Sign-in with your pilot id or email,
or register
Callsign
Passwort

Schedule Details

Flight Number: OEF9066
Departure: New York John F. Kennedy International Airport (KJFK) at 05:20
Arrival: Munich Airport (EDDM) at 12:20

Weather Information
Getting current METAR information for KJFK 250851Z 25003KT 10SM SCT250 17/15 A3005 RMK AO2 SLP175 T01670150 53002
Getting current METAR information for EDDM 250850Z 28010KT 250V310 9999 -RA FEW018 SCT030 BKN045 10/08 Q1003 RERA NOSIG

Schedule Frequency

Route Map